CYNE - Norway House Airport

Pirep is a free, collaborative database of all public and private airports located within the United States. All pilots are welcome to contribute, edit, and improve any airport they have local knowledge about, no registration required.
Are you familiar with this airport? Help out other pilots by adding your local knowledge.
Uploaded photos will be licensed under a CC BY-SA 4.0 license. Please only upload photos you have the rights to use.
Tags
Public
Undocu­mented
METAR / TAF
Webcam
Edit Tags
Food
Camping
Lodging
Car Rental
Bicycles
Swimming
Golfing
Fishing
Hot Springs
Museum
Flying Clubs
Airpark
Upcoming Events
No upcoming events. Is anything happening here soon?
*
*
*

Where exactly on/near the airport is this event taking place?

Is there a webpage with more information for this event?

Who should be contacted for more information?

What is this event all about?

Repeat every
Description
Transient Parking
Fuel Location
Landing & Tie-down Fees
Crew Car Availability
Flying Clubs
WiFi Access
Airport Statistics
Location: Norway House, Manitoba
Elevation: 734ft
Runway 05/23: 3,922ft
Runway 06/24: 3,902ft
Warning: This airport was imported from a non-authoritative source. It's public/private status may not be accurate.
Access: Open to the public
Current Weather — VFR
  • Weather data is strictly informational and not for flight planning purposes.
  • METAR
    2024-05-30 05:00:00 CDT
    Ceiling Wind Temperature Dewpoint Weather Visbility
    Sky clear 180° @ 9kt, gusts 16kt 59°F 46°F N/A 9SM
    Clouds: Scattered @ 14,000ft
    Raw: CYNE 301000Z AUTO 18009G16KT 9SM SCT140 15/08 A2975 RMK SLP081 DENSITY ALT 1200FT
  • TAF
    2024-05-30 02:00:00 CDT – 2024-05-30 10:00:00 CDT
    Ceiling Wind Weather Visbility
    Sky clear 180° @ 10kt N/A 6SM
    Clouds: Few @ 10,000ft, Scattered @ 25,000ft
    Raw: TAF CYNE 300640Z 3007/3019 18010KT WS005/18030KT P6SM FEW100 SCT250 FM301500 18015G25KT P6SM SCT080 BKN250 RMK FCST BASED ON AUTO OBS. NXT FCST BY 301300Z
  • TAF
    2024-05-30 10:00:00 CDT – 2024-05-30 14:00:00 CDT
    Ceiling Wind Weather Visbility
    25,000ft 180° @ 15kt, gusts 25kt N/A 6SM
    Clouds: Scattered @ 8,000ft, Broken @ 25,000ft
    Raw: TAF CYNE 300640Z 3007/3019 18010KT WS005/18030KT P6SM FEW100 SCT250 FM301500 18015G25KT P6SM SCT080 BKN250 RMK FCST BASED ON AUTO OBS. NXT FCST BY 301300Z
Click/tap to add an annotation marker to the map
Direct links to live image URLs will be displayed inline on this page. URLs to separate webpages will be linked to.
URL:
Direct links to live image URLs will be displayed inline on this page. URLs to separate webpages will be linked to.
URL:
Comments
Leave a comment What was your experience like at this airport?